sensor_id;sensor_type;location;lat;lon;timestamp;pressure;altitude;pressure_sealevel;temperature;humidity
48027;BME280;50714;49.208;5.364;2022-10-18T00:01:57;100336.94;;;18.14;92.36
48027;BME280;50714;49.208;5.364;2022-10-18T00:11:57;100315.09;;;18.14;92.84
48027;BME280;50714;49.208;5.364;2022-10-18T00:21:57;100295.69;;;18.03;93.17
48027;BME280;50714;49.208;5.364;2022-10-18T00:31:58;100278.31;;;17.86;94.26
48027;BME280;50714;49.208;5.364;2022-10-18T00:41:58;100308.50;;;17.91;94.61
48027;BME280;50714;49.208;5.364;2022-10-18T01:02:02;100255.16;;;17.89;94.14
48027;BME280;50714;49.208;5.364;2022-10-18T01:22:35;100270.94;;;17.87;94.16
48027;BME280;50714;49.208;5.364;2022-10-18T01:32:48;100285.50;;;17.81;95.35
48027;BME280;50714;49.208;5.364;2022-10-18T01:42:50;100301.91;;;17.81;94.79
48027;BME280;50714;49.208;5.364;2022-10-18T01:52:51;100294.31;;;17.83;95.03
48027;BME280;50714;49.208;5.364;2022-10-18T02:03:05;100276.25;;;17.82;94.59
48027;BME280;50714;49.208;5.364;2022-10-18T02:13:14;100280.75;;;17.76;95.27
48027;BME280;50714;49.208;5.364;2022-10-18T02:23:19;100278.00;;;17.76;95.28
48027;BME280;50714;49.208;5.364;2022-10-18T02:43:35;100272.78;;;17.75;95.25
48027;BME280;50714;49.208;5.364;2022-10-18T02:53:35;100279.31;;;17.73;95.41
48027;BME280;50714;49.208;5.364;2022-10-18T03:13:36;100288.03;;;17.64;96.58
48027;BME280;50714;49.208;5.364;2022-10-18T03:23:37;100273.03;;;17.55;96.33
48027;BME280;50714;49.208;5.364;2022-10-18T03:33:37;100284.16;;;17.53;96.41
48027;BME280;50714;49.208;5.364;2022-10-18T03:43:37;100294.25;;;17.53;95.99
48027;BME280;50714;49.208;5.364;2022-10-18T03:53:38;100302.88;;;17.50;96.29
48027;BME280;50714;49.208;5.364;2022-10-18T04:03:38;100319.19;;;17.56;96.90
48027;BME280;50714;49.208;5.364;2022-10-18T04:13:38;100332.00;;;17.56;96.48
48027;BME280;50714;49.208;5.364;2022-10-18T04:23:39;100353.16;;;17.60;96.71
48027;BME280;50714;49.208;5.364;2022-10-18T04:33:39;100351.69;;;17.64;96.89
48027;BME280;50714;49.208;5.364;2022-10-18T04:43:40;100348.72;;;17.66;96.83
48027;BME280;50714;49.208;5.364;2022-10-18T04:53:40;100353.78;;;17.62;96.49
48027;BME280;50714;49.208;5.364;2022-10-18T05:03:40;100352.09;;;17.61;96.51
48027;BME280;50714;49.208;5.364;2022-10-18T05:13:41;100349.44;;;17.55;96.00
48027;BME280;50714;49.208;5.364;2022-10-18T05:23:41;100361.25;;;17.49;96.07
48027;BME280;50714;49.208;5.364;2022-10-18T05:33:41;100354.84;;;17.43;97.08
48027;BME280;50714;49.208;5.364;2022-10-18T05:43:42;100345.97;;;17.48;97.21
48027;BME280;50714;49.208;5.364;2022-10-18T05:53:42;100372.88;;;17.44;97.45
48027;BME280;50714;49.208;5.364;2022-10-18T06:03:42;100383.81;;;17.44;97.50
48027;BME280;50714;49.208;5.364;2022-10-18T06:13:45;100386.31;;;17.46;97.19
48027;BME280;50714;49.208;5.364;2022-10-18T06:23:53;100385.00;;;17.48;98.61
48027;BME280;50714;49.208;5.364;2022-10-18T06:33:55;100400.09;;;17.51;98.45
48027;BME280;50714;49.208;5.364;2022-10-18T06:43:56;100417.44;;;17.56;98.05
48027;BME280;50714;49.208;5.364;2022-10-18T06:53:57;100427.31;;;17.57;97.81
48027;BME280;50714;49.208;5.364;2022-10-18T07:03:58;100433.22;;;17.54;97.61
48027;BME280;50714;49.208;5.364;2022-10-18T07:13:59;100446.25;;;17.52;98.49
48027;BME280;50714;49.208;5.364;2022-10-18T07:24:02;100460.22;;;17.62;98.63
48027;BME280;50714;49.208;5.364;2022-10-18T07:34:04;100473.00;;;17.68;99.12
48027;BME280;50714;49.208;5.364;2022-10-18T07:44:04;100478.38;;;17.75;98.60
48027;BME280;50714;49.208;5.364;2022-10-18T07:54:05;100480.38;;;17.86;98.40
48027;BME280;50714;49.208;5.364;2022-10-18T08:04:05;100494.66;;;17.88;98.57
48027;BME280;50714;49.208;5.364;2022-10-18T08:14:06;100514.44;;;18.02;98.05
48027;BME280;50714;49.208;5.364;2022-10-18T08:24:06;100517.25;;;18.14;97.48
48027;BME280;50714;49.208;5.364;2022-10-18T08:34:06;100510.13;;;18.13;96.57
48027;BME280;50714;49.208;5.364;2022-10-18T08:44:19;100505.28;;;18.15;96.87
48027;BME280;50714;49.208;5.364;2022-10-18T08:54:36;100504.13;;;18.40;96.26
48027;BME280;50714;49.208;5.364;2022-10-18T09:15:15;100513.84;;;18.96;94.17
48027;BME280;50714;49.208;5.364;2022-10-18T09:25:23;100522.00;;;19.15;91.76
48027;BME280;50714;49.208;5.364;2022-10-18T09:35:28;100522.88;;;19.27;94.27
48027;BME280;50714;49.208;5.364;2022-10-18T09:45:35;100529.47;;;19.84;91.61
48027;BME280;50714;49.208;5.364;2022-10-18T09:56:14;100528.63;;;19.95;89.53
48027;BME280;50714;49.208;5.364;2022-10-18T10:06:31;100525.25;;;20.40;88.54
48027;BME280;50714;49.208;5.364;2022-10-18T10:16:33;100529.19;;;21.01;83.17
48027;BME280;50714;49.208;5.364;2022-10-18T10:26:41;100528.59;;;21.61;85.27
48027;BME280;50714;49.208;5.364;2022-10-18T10:36:50;100533.31;;;21.82;81.47
48027;BME280;50714;49.208;5.364;2022-10-18T10:46:51;100537.81;;;21.55;82.49
48027;BME280;50714;49.208;5.364;2022-10-18T11:17:17;100534.22;;;22.04;81.36
48027;BME280;50714;49.208;5.364;2022-10-18T11:27:35;100536.00;;;21.43;79.40
48027;BME280;50714;49.208;5.364;2022-10-18T11:58:41;100519.16;;;20.78;81.49
48027;BME280;50714;49.208;5.364;2022-10-18T12:08:49;100501.88;;;20.49;82.41
48027;BME280;50714;49.208;5.364;2022-10-18T12:18:57;100514.03;;;20.41;82.88
48027;BME280;50714;49.208;5.364;2022-10-18T12:29:07;100509.13;;;20.32;83.29
48027;BME280;50714;49.208;5.364;2022-10-18T12:39:20;100505.84;;;20.18;83.28
48027;BME280;50714;49.208;5.364;2022-10-18T12:49:28;100503.00;;;20.13;83.15
48027;BME280;50714;49.208;5.364;2022-10-18T13:09:39;100493.72;;;20.02;83.31
48027;BME280;50714;49.208;5.364;2022-10-18T13:19:49;100494.09;;;19.94;83.75
48027;BME280;50714;49.208;5.364;2022-10-18T13:30:19;100490.53;;;19.94;84.33
48027;BME280;50714;49.208;5.364;2022-10-18T13:40:24;100484.91;;;19.89;84.38
48027;BME280;50714;49.208;5.364;2022-10-18T13:50:34;100484.56;;;19.85;84.42
48027;BME280;50714;49.208;5.364;2022-10-18T14:11:06;100486.75;;;19.83;84.63
48027;BME280;50714;49.208;5.364;2022-10-18T14:21:18;100468.97;;;19.86;84.60
48027;BME280;50714;49.208;5.364;2022-10-18T14:31:22;100473.72;;;19.90;84.48
48027;BME280;50714;49.208;5.364;2022-10-18T14:51:26;100473.47;;;19.92;83.61
48027;BME280;50714;49.208;5.364;2022-10-18T15:01:30;100463.00;;;20.00;82.21
48027;BME280;50714;49.208;5.364;2022-10-18T15:11:31;100460.84;;;20.02;83.31
48027;BME280;50714;49.208;5.364;2022-10-18T15:21:34;100452.63;;;19.91;83.10
48027;BME280;50714;49.208;5.364;2022-10-18T15:31:41;100449.69;;;19.69;82.32
48027;BME280;50714;49.208;5.364;2022-10-18T15:41:46;100447.06;;;19.39;83.29
48027;BME280;50714;49.208;5.364;2022-10-18T15:51:49;100447.88;;;19.16;84.59
48027;BME280;50714;49.208;5.364;2022-10-18T16:01:54;100444.41;;;18.97;84.70
48027;BME280;50714;49.208;5.364;2022-10-18T16:11:54;100439.84;;;18.80;85.12
48027;BME280;50714;49.208;5.364;2022-10-18T16:21:55;100446.59;;;18.65;85.71
48027;BME280;50714;49.208;5.364;2022-10-18T16:31:55;100447.28;;;18.42;86.01
48027;BME280;50714;49.208;5.364;2022-10-18T16:41:57;100450.28;;;18.23;86.46
48027;BME280;50714;49.208;5.364;2022-10-18T16:51:57;100451.16;;;18.05;87.44
48027;BME280;50714;49.208;5.364;2022-10-18T17:01:58;100461.94;;;17.82;87.78
48027;BME280;50714;49.208;5.364;2022-10-18T17:12:04;100454.53;;;17.64;88.38
48027;BME280;50714;49.208;5.364;2022-10-18T17:22:04;100472.72;;;17.52;88.84
48027;BME280;50714;49.208;5.364;2022-10-18T17:32:06;100478.13;;;17.33;88.88
48027;BME280;50714;49.208;5.364;2022-10-18T17:42:06;100478.09;;;17.15;89.22
48027;BME280;50714;49.208;5.364;2022-10-18T17:52:06;100483.59;;;17.09;89.75
48027;BME280;50714;49.208;5.364;2022-10-18T18:02:09;100495.16;;;17.04;90.13
48027;BME280;50714;49.208;5.364;2022-10-18T18:12:09;100503.66;;;16.89;89.75
48027;BME280;50714;49.208;5.364;2022-10-18T18:22:10;100492.19;;;16.81;90.01
48027;BME280;50714;49.208;5.364;2022-10-18T18:32:10;100495.63;;;16.63;89.74
48027;BME280;50714;49.208;5.364;2022-10-18T18:42:11;100501.09;;;16.56;89.81
48027;BME280;50714;49.208;5.364;2022-10-18T18:52:11;100486.50;;;16.44;89.92
48027;BME280;50714;49.208;5.364;2022-10-18T19:02:11;100480.25;;;16.30;89.73
48027;BME280;50714;49.208;5.364;2022-10-18T19:12:12;100455.38;;;16.27;89.90
48027;BME280;50714;49.208;5.364;2022-10-18T19:22:12;100460.59;;;16.28;90.17
48027;BME280;50714;49.208;5.364;2022-10-18T19:32:13;100457.63;;;16.30;90.13
48027;BME280;50714;49.208;5.364;2022-10-18T19:42:15;100451.81;;;16.26;89.63
48027;BME280;50714;49.208;5.364;2022-10-18T19:52:16;100445.63;;;16.06;89.72
48027;BME280;50714;49.208;5.364;2022-10-18T20:02:16;100449.00;;;16.01;89.80
48027;BME280;50714;49.208;5.364;2022-10-18T20:12:17;100450.06;;;15.94;90.32
48027;BME280;50714;49.208;5.364;2022-10-18T20:22:17;100436.84;;;16.04;91.12
48027;BME280;50714;49.208;5.364;2022-10-18T20:32:17;100445.16;;;16.16;91.61
48027;BME280;50714;49.208;5.364;2022-10-18T20:42:18;100452.25;;;16.23;91.29
48027;BME280;50714;49.208;5.364;2022-10-18T20:52:18;100456.00;;;16.22;91.04
48027;BME280;50714;49.208;5.364;2022-10-18T21:02:19;100448.09;;;16.14;91.10
48027;BME280;50714;49.208;5.364;2022-10-18T21:12:19;100453.34;;;16.09;92.15
48027;BME280;50714;49.208;5.364;2022-10-18T21:22:19;100451.72;;;16.01;91.73
48027;BME280;50714;49.208;5.364;2022-10-18T21:32:20;100443.94;;;16.05;92.75
48027;BME280;50714;49.208;5.364;2022-10-18T21:42:20;100431.81;;;16.01;92.42
48027;BME280;50714;49.208;5.364;2022-10-18T21:52:21;100408.56;;;15.98;92.74
48027;BME280;50714;49.208;5.364;2022-10-18T22:02:21;100390.13;;;16.00;93.11
48027;BME280;50714;49.208;5.364;2022-10-18T22:12:22;100394.53;;;16.01;93.08
48027;BME280;50714;49.208;5.364;2022-10-18T22:22:22;100378.75;;;16.10;93.43
48027;BME280;50714;49.208;5.364;2022-10-18T22:32:23;100383.31;;;16.23;94.04
48027;BME280;50714;49.208;5.364;2022-10-18T22:42:23;100384.47;;;16.40;94.08
48027;BME280;50714;49.208;5.364;2022-10-18T22:52:23;100381.66;;;16.53;94.79
48027;BME280;50714;49.208;5.364;2022-10-18T23:02:24;100378.22;;;16.64;94.92
48027;BME280;50714;49.208;5.364;2022-10-18T23:12:24;100382.81;;;16.70;95.05
48027;BME280;50714;49.208;5.364;2022-10-18T23:22:24;100381.53;;;16.73;95.10
48027;BME280;50714;49.208;5.364;2022-10-18T23:32:25;100377.75;;;16.74;95.11
48027;BME280;50714;49.208;5.364;2022-10-18T23:42:25;100368.13;;;16.72;94.96
48027;BME280;50714;49.208;5.364;2022-10-18T23:52:26;100365.63;;;16.70;95.01
